Time;durP1;ratioP1;P1;durP2;ratioP2;P2;SDS_P1;SDS_P2;PMS_P1;PMS_P2;Temp;Humidity;BMP_temperature;BMP_pressure;BME280_temperature;BME280_humidity;BME280_pressure;Samples;Min_cycle;Max_cycle;Signal;HPM_P1;HPM_P2
2021/04/13 00:00:18;;;;;;;;;;;;;;;20.96;51.04;102302.50;2091305;28;1961;-70
2021/04/13 00:01:19;;;;;;;;;;;;;;;20.96;50.99;102293.97;2090286;28;1901;-71
2021/04/13 00:02:19;;;;;;;;;;;;;;;20.96;50.87;102296.81;2091886;28;2171;-70
2021/04/13 00:03:20;;;;;;;;;;;;;;;20.96;50.90;102289.13;2091343;28;1945;-70
2021/04/13 00:04:21;;;;;;;;;;;;;;;20.95;50.92;102292.28;2091271;28;2027;-70
2021/04/13 00:05:22;;;;;;;;;;;;;;;20.95;50.93;102298.81;2096940;28;1675;-69
2021/04/13 00:06:22;;;;;;;;;;;;;;;20.95;50.97;102298.81;2090560;28;1962;-69
2021/04/13 00:07:23;;;;;;;;;;;;;;;20.94;50.89;102287.75;2088178;28;2436;-68
2021/04/13 00:08:24;;;;;;;;;;;;;;;20.95;50.97;102297.97;2089158;28;1915;-70
2021/04/13 00:09:25;;;;;;;;;;;;;;;20.95;50.92;102298.81;2091132;28;1922;-70
2021/04/13 00:10:25;;;;;;;;;;;;;;;20.94;50.99;102294.28;2091578;28;1672;-69
2021/04/13 00:11:26;;;;;;;;;;;;;;;20.95;50.92;102292.28;2089500;28;1971;-70
2021/04/13 00:12:27;;;;;;;;;;;;;;;20.95;50.87;102297.97;2094141;28;2072;-71
2021/04/13 00:13:28;;;;;;;;;;;;;;;20.95;50.85;102297.97;2096448;28;2044;-70
2021/04/13 00:14:28;;;;;;;;;;;;;;;20.95;50.84;102295.13;2093080;28;1698;-71
2021/04/13 00:15:29;;;;;;;;;;;;;;;20.95;50.99;102295.13;2093366;28;2243;-75
2021/04/13 00:16:30;;;;;;;;;;;;;;;20.96;50.90;102302.50;2092026;28;1695;-75
2021/04/13 00:17:31;;;;;;;;;;;;;;;20.95;50.86;102290.28;2089113;28;2052;-73
2021/04/13 00:18:32;;;;;;;;;;;;;;;20.96;50.78;102299.66;2092805;28;2022;-73
2021/04/13 00:19:32;;;;;;;;;;;;;;;20.95;50.97;102293.13;2094180;28;1782;-74
2021/04/13 00:20:33;;;;;;;;;;;;;;;20.95;50.97;102301.69;2093394;28;1783;-74
2021/04/13 00:21:34;;;;;;;;;;;;;;;20.96;50.91;102293.97;2094210;28;1565;-74
2021/04/13 00:22:35;;;;;;;;;;;;;;;20.95;50.83;102295.13;2087181;28;1960;-74
2021/04/13 00:23:36;;;;;;;;;;;;;;;20.95;50.84;102300.81;2092345;28;1365;-71
2021/04/13 00:24:36;;;;;;;;;;;;;;;20.95;50.93;102297.97;2092265;28;1749;-71
2021/04/13 00:25:37;;;;;;;;;;;;;;;20.95;50.82;102295.97;2087055;28;1827;-71
2021/04/13 00:26:38;;;;;;;;;;;;;;;20.96;50.78;102297.66;2090940;28;1878;-71
2021/04/13 00:27:39;;;;;;;;;;;;;;;20.96;50.78;102302.50;2087631;28;1918;-69
2021/04/13 00:28:40;;;;;;;;;;;;;;;20.96;50.94;102299.66;2091061;28;1855;-68
2021/04/13 00:29:40;;;;;;;;;;;;;;;20.97;50.88;102298.50;2088829;28;1847;-68
2021/04/13 00:30:41;;;;;;;;;;;;;;;20.96;50.80;102296.81;2090428;28;1823;-69
2021/04/13 00:31:43;;;;;;;;;;;;;;;20.95;50.83;102298.81;2092392;28;1903;-68
2021/04/13 00:32:45;;;;;;;;;;;;;;;20.96;50.91;102300.50;2089417;28;1827;-69
2021/04/13 00:33:47;;;;;;;;;;;;;;;20.96;50.78;102300.50;2091309;28;2056;-70
2021/04/13 00:35:08;;;;;;;;;;;;;;;20.97;50.95;102298.50;2092062;28;1673;-69
2021/04/13 00:36:12;;;;;;;;;;;;;;;20.97;50.83;102298.50;2091286;28;1794;-70
2021/04/13 00:37:13;;;;;;;;;;;;;;;20.97;50.86;102301.34;2090456;28;1687;-68
2021/04/13 00:38:14;;;;;;;;;;;;;;;20.96;50.85;102297.66;2092565;28;2017;-68
2021/04/13 00:39:15;;;;;;;;;;;;;;;20.98;50.95;102300.16;2095007;28;1559;-68
2021/04/13 00:40:16;;;;;;;;;;;;;;;20.97;50.94;102304.19;2087766;28;1946;-67
2021/04/13 00:41:17;;;;;;;;;;;;;;;20.96;50.73;102303.34;2091669;28;1767;-68
2021/04/13 00:42:18;;;;;;;;;;;;;;;20.97;50.81;102301.34;2087002;28;1949;-69
2021/04/13 00:43:18;;;;;;;;;;;;;;;20.97;50.99;102296.47;2088813;28;1978;-68
2021/04/13 00:44:19;;;;;;;;;;;;;;;20.97;50.95;102305.03;2091091;28;1902;-68
2021/04/13 00:45:20;;;;;;;;;;;;;;;20.96;50.77;102303.34;2090045;28;1739;-68
2021/04/13 00:46:21;;;;;;;;;;;;;;;20.97;50.71;102304.19;2097373;28;1440;-69
2021/04/13 00:47:22;;;;;;;;;;;;;;;20.98;50.89;102305.84;2094384;28;1667;-70
2021/04/13 00:48:23;;;;;;;;;;;;;;;20.97;50.69;102302.19;2083984;28;1933;-71
2021/04/13 00:49:23;;;;;;;;;;;;;;;20.97;50.94;102301.34;2088897;28;1990;-69
2021/04/13 00:50:24;;;;;;;;;;;;;;;20.98;50.72;102297.31;2091459;28;1393;-71
2021/04/13 00:51:25;;;;;;;;;;;;;;;20.97;50.71;102295.66;2090620;28;1883;-71
2021/04/13 00:52:26;;;;;;;;;;;;;;;20.97;50.71;102298.50;2087072;28;2017;-71
2021/04/13 00:53:26;;;;;;;;;;;;;;;20.98;50.66;102297.31;2087463;28;1887;-71
2021/04/13 00:54:27;;;;;;;;;;;;;;;20.97;50.84;102292.81;2092719;28;1502;-71
2021/04/13 00:55:28;;;;;;;;;;;;;;;20.96;50.73;102300.50;2088826;28;1958;-71
2021/04/13 00:56:29;;;;;;;;;;;;;;;20.98;50.87;102297.31;2093207;28;1484;-71
2021/04/13 00:57:30;;;;;;;;;;;;;;;20.98;50.88;102294.47;2093722;28;1853;-71
2021/04/13 00:58:31;;;;;;;;;;;;;;;20.99;50.77;102296.19;2092370;28;1831;-71
2021/04/13 00:59:31;;;;;;;;;;;;;;;20.98;50.81;102295.34;2090781;28;1744;-71
2021/04/13 01:00:32;;;;;;;;;;;;;;;20.97;50.90;102290.78;2093124;28;1770;-71
2021/04/13 01:01:33;;;;;;;;;;;;;;;20.98;50.73;102291.63;2087393;28;1943;-70
2021/04/13 01:02:36;;;;;;;;;;;;;;;20.98;50.96;102294.47;2091757;28;1508;-72
2021/04/13 01:03:37;;;;;;;;;;;;;;;20.97;50.92;102293.63;2089619;28;1903;-72
2021/04/13 01:04:38;;;;;;;;;;;;;;;20.98;50.77;102301.03;2092081;28;1396;-71
2021/04/13 01:05:39;;;;;;;;;;;;;;;20.97;50.84;102295.66;2091997;28;1719;-71
2021/04/13 01:06:39;;;;;;;;;;;;;;;20.98;50.73;102300.16;2091893;28;1648;-72
2021/04/13 01:07:40;;;;;;;;;;;;;;;20.98;50.73;102295.34;2090955;28;1957;-72
2021/04/13 01:08:41;;;;;;;;;;;;;;;20.98;50.74;102300.16;2088003;28;1866;-72
2021/04/13 01:09:41;;;;;;;;;;;;;;;20.98;50.73;102291.63;2085912;28;1692;-71
2021/04/13 01:10:42;;;;;;;;;;;;;;;20.97;50.69;102290.78;2091280;28;2057;-70
2021/04/13 01:11:43;;;;;;;;;;;;;;;20.98;50.78;102288.78;2090311;28;1977;-69
2021/04/13 01:12:44;;;;;;;;;;;;;;;20.97;50.81;102296.47;2089853;28;1708;-69
2021/04/13 01:13:44;;;;;;;;;;;;;;;20.98;50.52;102291.63;2088228;28;1890;-69
2021/04/13 01:14:45;;;;;;;;;;;;;;;20.98;50.76;102295.34;2092670;28;1393;-69
2021/04/13 01:15:46;;;;;;;;;;;;;;;20.98;50.78;102295.34;2092418;28;1531;-70
2021/04/13 01:16:47;;;;;;;;;;;;;;;20.98;50.68;102301.03;2090918;28;1854;-70
2021/04/13 01:17:48;;;;;;;;;;;;;;;20.99;50.68;102299.88;2089840;28;2143;-70
2021/04/13 01:18:49;;;;;;;;;;;;;;;20.98;50.64;102295.34;2088118;28;2025;-70
2021/04/13 01:19:49;;;;;;;;;;;;;;;20.99;50.71;102301.88;2093319;28;1819;-69
2021/04/13 01:20:51;;;;;;;;;;;;;;;20.98;50.83;102300.16;2091075;28;1774;-69
2021/04/13 01:21:54;;;;;;;;;;;;;;;20.99;50.80;102299.03;2095473;28;1903;-69
2021/04/13 01:24:03;;;;;;;;;;;;;;;20.99;50.75;102299.88;2088902;28;1963;-69
2021/04/13 01:25:04;;;;;;;;;;;;;;;20.99;50.58;102296.19;2093344;28;1764;-69
2021/04/13 01:26:05;;;;;;;;;;;;;;;20.99;50.93;102299.03;2092826;28;1826;-70
2021/04/13 01:27:06;;;;;;;;;;;;;;;20.99;50.68;102304.72;2088065;28;1802;-70
2021/04/13 01:28:09;;;;;;;;;;;;;;;20.99;50.61;102302.72;2087785;28;1810;-70
2021/04/13 01:29:10;;;;;;;;;;;;;;;20.99;50.80;102305.56;2085660;28;1839;-70
2021/04/13 01:30:11;;;;;;;;;;;;;;;20.99;50.59;102296.19;2086790;28;1397;-71
2021/04/13 01:31:12;;;;;;;;;;;;;;;20.98;50.69;102295.34;2087397;28;1838;-70
2021/04/13 01:32:13;;;;;;;;;;;;;;;20.99;50.69;102299.03;2090911;28;1989;-69
2021/04/13 01:33:14;;;;;;;;;;;;;;;20.99;50.60;102296.19;2091062;28;1688;-69
2021/04/13 01:34:15;;;;;;;;;;;;;;;20.98;50.63;102295.34;2086691;28;1923;-69
2021/04/13 01:35:16;;;;;;;;;;;;;;;20.99;50.51;102297.03;2090186;28;1922;-69
2021/04/13 01:36:17;;;;;;;;;;;;;;;20.98;50.55;102294.47;2091512;28;1568;-69
2021/04/13 01:37:23;;;;;;;;;;;;;;;20.98;50.72;102297.31;2091131;28;1496;-69
2021/04/13 01:38:31;;;;;;;;;;;;;;;20.99;50.80;102294.16;2091411;28;1802;-68
2021/04/13 01:39:34;;;;;;;;;;;;;;;20.99;50.76;102299.03;2087313;28;1968;-68
2021/04/13 01:42:55;;;;;;;;;;;;;;;21.00;50.61;102297.84;2087049;28;1898;-68
2021/04/13 01:43:56;;;;;;;;;;;;;;;21.00;50.56;102295.00;2091575;28;1689;-69
2021/04/13 01:44:56;;;;;;;;;;;;;;;21.00;50.67;102295.00;2092977;28;1786;-68
2021/04/13 01:45:57;;;;;;;;;;;;;;;21.00;50.55;102303.53;2093735;28;1425;-68
2021/04/13 01:46:58;;;;;;;;;;;;;;;20.99;50.72;102294.16;2095656;28;1428;-68
2021/04/13 01:47:59;;;;;;;;;;;;;;;21.00;50.73;102297.84;2094645;28;1566;-68
2021/04/13 01:48:59;;;;;;;;;;;;;;;21.00;50.61;102295.00;2092051;28;1878;-68
2021/04/13 01:50:00;;;;;;;;;;;;;;;21.00;50.87;102297.84;2089881;28;1926;-68
2021/04/13 01:51:01;;;;;;;;;;;;;;;21.01;50.81;102299.56;2094702;28;1739;-68
2021/04/13 01:52:02;;;;;;;;;;;;;;;21.01;50.69;102294.72;2095106;28;1906;-71
2021/04/13 01:53:02;;;;;;;;;;;;;;;20.47;41.60;102305.69;2091890;28;1973;-70
2021/04/13 01:54:04;;;;;;;;;;;;;;;19.69;41.95;102300.84;2091681;28;2012;-71
2021/04/13 01:55:05;;;;;;;;;;;;;;;19.78;44.26;102302.66;2091245;28;2516;-71
2021/04/13 01:56:05;;;;;;;;;;;;;;;20.03;45.32;102301.38;2099064;28;1551;-71
2021/04/13 01:57:06;;;;;;;;;;;;;;;20.22;45.98;102300.50;2092578;28;1632;-71
2021/04/13 01:58:07;;;;;;;;;;;;;;;20.36;46.50;102300.53;2089190;28;1704;-71
2021/04/13 01:59:07;;;;;;;;;;;;;;;20.44;46.85;102296.97;2092463;28;1910;-70
2021/04/13 02:00:08;;;;;;;;;;;;;;;20.51;47.07;102299.38;2090367;28;1723;-70
2021/04/13 02:01:11;;;;;;;;;;;;;;;20.56;47.08;102300.16;2092834;28;1956;-69
2021/04/13 02:02:12;;;;;;;;;;;;;;;20.61;47.31;102299.22;2095046;28;1519;-69
2021/04/13 02:03:13;;;;;;;;;;;;;;;20.63;47.26;102299.75;2092863;28;2080;-70
2021/04/13 02:04:15;;;;;;;;;;;;;;;20.66;47.37;102304.81;2094821;28;1878;-70
2021/04/13 02:05:17;;;;;;;;;;;;;;;20.68;47.45;102300.50;2088540;28;2048;-72
2021/04/13 02:06:18;;;;;;;;;;;;;;;20.70;47.43;102300.16;2090151;28;1688;-71
2021/04/13 02:07:32;;;;;;;;;;;;;;;20.72;47.36;102302.72;2092702;28;1536;-70
2021/04/13 02:08:33;;;;;;;;;;;;;;;20.72;47.56;102309.25;2083410;28;1724;-70
2021/04/13 02:09:46;;;;;;;;;;;;;;;20.73;47.46;102298.69;2077304;28;1964;-68
2021/04/13 02:10:47;;;;;;;;;;;;;;;20.75;47.53;102299.22;2089665;28;1377;-68
2021/04/13 02:11:47;;;;;;;;;;;;;;;20.74;47.72;102298.41;2093986;28;1914;-69
2021/04/13 02:12:48;;;;;;;;;;;;;;;20.74;47.69;102298.41;2094950;28;1409;-68
2021/04/13 02:13:49;;;;;;;;;;;;;;;20.75;47.69;102296.38;2083697;28;1782;-68
2021/04/13 02:14:50;;;;;;;;;;;;;;;20.75;47.84;102297.22;2082732;28;1879;-70
2021/04/13 02:15:50;;;;;;;;;;;;;;;20.77;47.88;102302.63;2091171;28;1923;-70
2021/04/13 02:16:52;;;;;;;;;;;;;;;20.77;47.76;102306.28;2093638;28;1926;-69
2021/04/13 02:17:53;;;;;;;;;;;;;;;20.78;47.82;102302.28;2087504;28;1560;-71
2021/04/13 02:18:54;;;;;;;;;;;;;;;20.79;47.91;102298.28;2082682;28;1947;-69
2021/04/13 02:19:55;;;;;;;;;;;;;;;20.78;47.98;102302.28;2082007;28;1979;-68
2021/04/13 02:20:56;;;;;;;;;;;;;;;20.80;47.97;102304.81;2094243;28;1413;-68
2021/04/13 02:21:56;;;;;;;;;;;;;;;20.81;47.93;102300.81;2093264;28;1555;-69
2021/04/13 02:22:57;;;;;;;;;;;;;;;20.80;47.97;102302.81;2090067;28;1746;-70
2021/04/13 02:23:58;;;;;;;;;;;;;;;20.81;47.99;102295.13;2089344;28;1790;-70
2021/04/13 02:24:59;;;;;;;;;;;;;;;20.81;48.09;102306.50;2083678;28;1869;-70
2021/04/13 02:25:59;;;;;;;;;;;;;;;20.82;48.15;102311.03;2090071;28;1857;-69
2021/04/13 02:27:00;;;;;;;;;;;;;;;20.81;48.07;102307.34;2090114;28;1727;-68
2021/04/13 02:28:01;;;;;;;;;;;;;;;20.81;48.12;102315.88;2090234;28;1977;-70
2021/04/13 02:29:02;;;;;;;;;;;;;;;20.81;48.21;102310.19;2090118;28;1919;-70
2021/04/13 02:30:02;;;;;;;;;;;;;;;20.82;48.18;102311.03;2089691;28;1773;-70
2021/04/13 02:31:03;;;;;;;;;;;;;;;20.82;48.31;102311.88;2091139;28;1532;-70
2021/04/13 02:32:04;;;;;;;;;;;;;;;20.82;48.35;102311.03;2090844;28;1918;-70
2021/04/13 02:33:05;;;;;;;;;;;;;;;20.81;48.36;102315.88;2090693;28;1763;-70
2021/04/13 02:34:06;;;;;;;;;;;;;;;20.82;48.37;102314.72;2094279;28;1926;-70
2021/04/13 02:35:07;;;;;;;;;;;;;;;20.82;48.27;102314.72;2088019;28;1889;-70
2021/04/13 02:36:08;;;;;;;;;;;;;;;20.81;48.30;102313.03;2085899;28;1926;-69
2021/04/13 02:37:09;;;;;;;;;;;;;;;20.82;48.33;102320.41;2087500;28;1989;-69
2021/04/13 02:38:09;;;;;;;;;;;;;;;20.83;48.52;102319.25;2097905;28;1599;-70
2021/04/13 02:39:13;;;;;;;;;;;;;;;20.83;48.47;102316.41;2092777;28;1750;-70
2021/04/13 02:40:14;;;;;;;;;;;;;;;20.83;48.48;102316.41;2092800;28;1949;-70
2021/04/13 02:41:16;;;;;;;;;;;;;;;20.84;48.51;102317.25;2095607;28;1559;-70
2021/04/13 02:42:17;;;;;;;;;;;;;;;20.84;48.42;102317.25;2092924;28;1798;-70
2021/04/13 02:43:18;;;;;;;;;;;;;;;20.84;48.59;102317.25;2090487;28;1616;-68
2021/04/13 02:44:19;;;;;;;;;;;;;;;20.84;48.57;102318.09;2093485;28;1433;-70
2021/04/13 02:45:20;;;;;;;;;;;;;;;20.85;48.67;102313.25;2089883;28;2118;-69
2021/04/13 02:46:21;;;;;;;;;;;;;;;20.85;48.67;102313.25;2094200;28;1496;-70
2021/04/13 02:47:21;;;;;;;;;;;;;;;20.85;48.65;102316.94;2092068;28;1571;-70
2021/04/13 02:48:22;;;;;;;;;;;;;;;20.86;48.55;102326.31;2095757;28;1412;-69
2021/04/13 02:49:23;;;;;;;;;;;;;;;20.86;48.80;102317.78;2092081;28;1699;-70
2021/04/13 02:50:24;;;;;;;;;;;;;;;20.86;48.66;102320.63;2091163;28;1831;-69
2021/04/13 02:51:24;;;;;;;;;;;;;;;20.86;48.66;102324.31;2093990;28;1960;-68
2021/04/13 02:52:25;;;;;;;;;;;;;;;20.86;48.86;102327.16;2092659;28;1930;-68
2021/04/13 02:53:26;;;;;;;;;;;;;;;20.86;48.82;102321.47;2091771;28;1842;-69
2021/04/13 02:54:26;;;;;;;;;;;;;;;20.86;48.69;102321.47;2092065;28;1487;-68
2021/04/13 02:55:27;;;;;;;;;;;;;;;20.86;48.75;102321.47;2089278;28;1910;-68
2021/04/13 02:56:28;;;;;;;;;;;;;;;20.85;48.72;102316.94;2087206;28;1996;-68
2021/04/13 02:57:29;;;;;;;;;;;;;;;20.86;48.90;102321.47;2092435;28;1848;-68
2021/04/13 02:58:29;;;;;;;;;;;;;;;20.84;48.64;102318.09;2092655;28;1575;-68
2021/04/13 02:59:30;;;;;;;;;;;;;;;20.85;48.89;102318.94;2092977;28;1551;-68
2021/04/13 03:00:31;;;;;;;;;;;;;;;20.85;48.90;102319.78;2089941;28;1718;-68
2021/04/13 03:01:32;;;;;;;;;;;;;;;20.83;48.84;102316.41;2087438;28;2125;-68
2021/04/13 03:02:33;;;;;;;;;;;;;;;20.85;48.77;102316.94;2090757;28;1914;-68
2021/04/13 03:03:33;;;;;;;;;;;;;;;20.87;48.82;102320.31;2090131;28;2491;-68
2021/04/13 03:04:34;;;;;;;;;;;;;;;20.86;48.92;102317.78;2088039;28;1531;-70
2021/04/13 03:05:35;;;;;;;;;;;;;;;20.87;48.76;102310.94;2089180;28;1828;-68
2021/04/13 03:06:36;;;;;;;;;;;;;;;20.88;48.76;102315.47;2093165;28;1892;-70
2021/04/13 03:07:36;;;;;;;;;;;;;;;20.86;48.89;102315.78;2095559;28;1981;-71
2021/04/13 03:08:37;;;;;;;;;;;;;;;20.86;48.77;102318.63;2093613;28;1493;-70
2021/04/13 03:09:38;;;;;;;;;;;;;;;20.88;48.85;102313.47;2087885;28;1616;-69
2021/04/13 03:10:39;;;;;;;;;;;;;;;20.88;48.82;102324.84;2090738;28;1877;-70
2021/04/13 03:11:39;;;;;;;;;;;;;;;20.88;49.00;102316.31;2091137;28;1759;-70
2021/04/13 03:12:41;;;;;;;;;;;;;;;20.89;48.96;102314.28;2089224;28;1989;-74
2021/04/13 03:13:41;;;;;;;;;;;;;;;20.88;48.87;102322.00;2092711;28;1981;-71
2021/04/13 03:14:42;;;;;;;;;;;;;;;20.89;48.84;102320.81;2092121;28;1468;-71
2021/04/13 03:15:44;;;;;;;;;;;;;;;20.89;49.06;102319.97;2091168;28;1886;-71
2021/04/13 03:16:45;;;;;;;;;;;;;;;20.89;48.89;102325.66;2082510;28;1661;-71
2021/04/13 03:17:46;;;;;;;;;;;;;;;20.88;48.91;102324.84;2077625;28;1935;-71
2021/04/13 03:18:47;;;;;;;;;;;;;;;20.89;48.92;102325.66;2093829;28;1578;-70
2021/04/13 03:19:48;;;;;;;;;;;;;;;20.90;49.10;102328.22;2090722;28;1583;-69
2021/04/13 03:20:49;;;;;;;;;;;;;;;20.90;49.10;102325.38;2089262;28;1894;-68
2021/04/13 03:21:49;;;;;;;;;;;;;;;20.88;48.90;102324.84;2093897;28;1508;-71
2021/04/13 03:22:50;;;;;;;;;;;;;;;20.89;49.20;102326.50;2090054;28;1786;-70
2021/04/13 03:23:51;;;;;;;;;;;;;;;20.91;49.10;102326.22;2087140;28;1933;-70
2021/04/13 03:24:53;;;;;;;;;;;;;;;20.92;49.16;102327.88;2084731;28;1879;-70
2021/04/13 03:25:54;;;;;;;;;;;;;;;20.91;49.00;102327.03;2089822;28;1711;-69
2021/04/13 03:26:55;;;;;;;;;;;;;;;20.91;49.04;102324.19;2088826;28;1849;-69
2021/04/13 03:27:55;;;;;;;;;;;;;;;20.92;49.09;102327.88;2092238;28;1895;-69
2021/04/13 03:28:56;;;;;;;;;;;;;;;20.91;49.38;102321.34;2090985;28;2040;-70
2021/04/13 03:29:57;;;;;;;;;;;;;;;20.91;49.24;102323.38;2092972;28;1668;-69
2021/04/13 03:30:58;;;;;;;;;;;;;;;20.92;49.34;102319.34;2089284;28;1872;-69
2021/04/13 03:31:59;;;;;;;;;;;;;;;20.93;49.27;102325.91;2090838;28;1918;-69
2021/04/13 03:32:59;;;;;;;;;;;;;;;20.93;49.14;102323.06;2094409;28;1743;-70
2021/04/13 03:34:00;;;;;;;;;;;;;;;20.93;49.22;102317.38;2090341;28;1996;-70
2021/04/13 03:35:01;;;;;;;;;;;;;;;20.92;49.28;102319.34;2089064;28;1932;-69
2021/04/13 03:36:02;;;;;;;;;;;;;;;20.93;49.36;102315.38;2095109;28;2038;-70
2021/04/13 03:37:03;;;;;;;;;;;;;;;20.93;49.29;102320.22;2097304;28;1536;-69
2021/04/13 03:38:03;;;;;;;;;;;;;;;20.94;49.34;102321.88;2092214;28;1864;-69
2021/04/13 03:39:04;;;;;;;;;;;;;;;20.93;49.33;102323.91;2091477;28;1863;-69
2021/04/13 03:40:05;;;;;;;;;;;;;;;20.93;49.20;102323.91;2091506;28;1918;-69
2021/04/13 03:41:05;;;;;;;;;;;;;;;20.94;49.44;102330.44;2091537;28;1549;-69
2021/04/13 03:42:06;;;;;;;;;;;;;;;20.94;49.40;102327.59;2089574;28;1739;-69
2021/04/13 03:43:07;;;;;;;;;;;;;;;20.94;49.35;102328.41;2089524;28;2249;-70
2021/04/13 03:44:08;;;;;;;;;;;;;;;20.94;49.32;102327.59;2090234;28;1986;-71
2021/04/13 03:45:09;;;;;;;;;;;;;;;20.94;49.40;102328.41;2089880;28;1836;-70
2021/04/13 03:46:09;;;;;;;;;;;;;;;20.91;49.44;102321.34;2090727;28;1622;-70
2021/04/13 03:47:10;;;;;;;;;;;;;;;20.94;49.43;102319.88;2085418;28;1961;-70
2021/04/13 03:48:11;;;;;;;;;;;;;;;20.94;49.28;102327.59;2088055;28;2021;-70
2021/04/13 03:49:12;;;;;;;;;;;;;;;20.94;49.32;102327.59;2089682;28;1736;-70
2021/04/13 03:50:13;;;;;;;;;;;;;;;20.93;49.38;102320.22;2095785;28;1511;-70
2021/04/13 03:51:14;;;;;;;;;;;;;;;20.93;49.43;102323.91;2090226;28;1987;-70
2021/04/13 03:52:14;;;;;;;;;;;;;;;20.94;49.41;102327.59;2089677;28;1918;-70
2021/04/13 03:53:15;;;;;;;;;;;;;;;20.93;49.31;102321.06;2091449;28;1924;-71
2021/04/13 03:54:16;;;;;;;;;;;;;;;20.94;49.40;102330.44;2086575;28;1775;-71
2021/04/13 03:55:16;;;;;;;;;;;;;;;20.94;49.35;102321.88;2094241;28;1456;-72
2021/04/13 03:56:19;;;;;;;;;;;;;;;20.93;49.22;102326.75;2095711;28;1539;-70
2021/04/13 03:57:20;;;;;;;;;;;;;;;20.94;49.28;102328.41;2088346;28;1766;-70
2021/04/13 03:58:21;;;;;;;;;;;;;;;20.94;49.37;102334.09;2088368;28;1834;-72
2021/04/13 03:59:22;;;;;;;;;;;;;;;20.95;49.27;102332.09;2094280;28;1863;-72
2021/04/13 04:00:22;;;;;;;;;;;;;;;20.94;49.34;102328.41;2090314;28;1871;-72
2021/04/13 04:01:23;;;;;;;;;;;;;;;20.94;49.38;102334.09;2091901;28;1731;-72
2021/04/13 04:02:24;;;;;;;;;;;;;;;20.95;49.43;102329.25;2092861;28;1744;-72
2021/04/13 04:03:25;;;;;;;;;;;;;;;20.94;49.40;102342.66;2092670;28;1649;-72
2021/04/13 04:04:29;;;;;;;;;;;;;;;20.94;49.41;102327.59;2089744;28;1918;-71
2021/04/13 04:05:30;;;;;;;;;;;;;;;20.94;49.40;102331.25;2092466;28;2125;-71
2021/04/13 04:06:30;;;;;;;;;;;;;;;20.94;49.44;102330.44;2095677;28;1535;-71
2021/04/13 04:07:38;;;;;;;;;;;;;;;20.94;49.29;102336.97;2090376;28;2148;-72
2021/04/13 04:08:47;;;;;;;;;;;;;;;20.94;49.28;102334.09;2090274;28;1881;-73
2021/04/13 04:09:48;;;;;;;;;;;;;;;20.94;49.42;102334.09;2092829;28;1628;-73
2021/04/13 04:10:49;;;;;;;;;;;;;;;20.95;49.32;102335.81;2092784;28;1763;-73
2021/04/13 04:11:50;;;;;;;;;;;;;;;20.95;49.43;102332.09;2090233;28;1739;-73
2021/04/13 04:12:51;;;;;;;;;;;;;;;20.96;49.49;102330.97;2091712;28;1922;-72
2021/04/13 04:13:51;;;;;;;;;;;;;;;20.95;49.40;102329.25;2093477;28;1484;-73
2021/04/13 04:14:52;;;;;;;;;;;;;;;20.95;49.33;102326.41;2094790;28;1488;-73
2021/04/13 04:15:53;;;;;;;;;;;;;;;20.95;49.51;102329.25;2089402;28;1866;-73
2021/04/13 04:16:54;;;;;;;;;;;;;;;20.94;49.36;102328.41;2087669;28;1839;-73
2021/04/13 04:17:54;;;;;;;;;;;;;;;20.95;49.38;102330.13;2084022;28;1896;-69
2021/04/13 04:18:55;;;;;;;;;;;;;;;20.96;49.42;102336.66;2093503;28;1895;-70
2021/04/13 04:19:56;;;;;;;;;;;;;;;20.96;49.59;102333.81;2095612;28;1832;-70
2021/04/13 04:20:58;;;;;;;;;;;;;;;20.98;49.47;102334.31;2094109;28;1634;-70
2021/04/13 04:21:59;;;;;;;;;;;;;;;20.96;49.42;102328.94;2091831;28;1704;-71
2021/04/13 04:23:00;;;;;;;;;;;;;;;20.96;49.51;102340.34;2089293;28;1846;-71
2021/04/13 04:24:01;;;;;;;;;;;;;;;20.97;49.35;102332.63;2089324;28;1826;-70
2021/04/13 04:25:02;;;;;;;;;;;;;;;20.97;49.57;102335.47;2089232;28;1860;-70
2021/04/13 04:26:02;;;;;;;;;;;;;;;20.98;49.56;102345.69;2093953;28;1886;-70
2021/04/13 04:27:03;;;;;;;;;;;;;;;20.97;49.59;102344.03;2091512;28;1740;-69
2021/04/13 04:28:04;;;;;;;;;;;;;;;20.96;49.59;102339.50;2090307;28;1696;-71
2021/04/13 04:29:05;;;;;;;;;;;;;;;20.98;49.53;102342.84;2085805;28;2231;-72
2021/04/13 04:30:05;;;;;;;;;;;;;;;20.97;49.54;102338.31;2090727;28;1902;-69
2021/04/13 04:31:06;;;;;;;;;;;;;;;20.97;49.45;102342.00;2091059;28;1881;-70
2021/04/13 04:32:07;;;;;;;;;;;;;;;20.97;49.61;102344.03;2090498;28;1696;-70
2021/04/13 04:33:08;;;;;;;;;;;;;;;20.96;49.56;102340.34;2088857;28;1922;-70
2021/04/13 04:34:09;;;;;;;;;;;;;;;20.97;49.66;102339.16;2095397;28;1484;-70
2021/04/13 04:35:09;;;;;;;;;;;;;;;20.97;49.70;102341.19;2090539;28;1875;-70
2021/04/13 04:36:10;;;;;;;;;;;;;;;20.97;49.63;102341.19;2093437;28;1536;-70
2021/04/13 04:37:11;;;;;;;;;;;;;;;20.97;49.51;102344.03;2092146;28;2021;-70
2021/04/13 04:38:11;;;;;;;;;;;;;;;20.96;49.53;102346.03;2089145;28;1826;-70
2021/04/13 04:39:12;;;;;;;;;;;;;;;20.97;49.51;102346.88;2088745;28;1945;-70
2021/04/13 04:40:13;;;;;;;;;;;;;;;20.96;49.56;102343.19;2093074;28;1631;-69
2021/04/13 04:41:14;;;;;;;;;;;;;;;20.98;49.59;102345.69;2091054;28;1729;-70
2021/04/13 04:42:15;;;;;;;;;;;;;;;20.98;49.54;102348.53;2090222;28;1957;-70
2021/04/13 04:43:17;;;;;;;;;;;;;;;20.98;49.66;102351.38;2090218;28;2188;-70
2021/04/13 04:44:18;;;;;;;;;;;;;;;20.97;49.61;102350.53;2086800;28;1866;-70
2021/04/13 04:45:19;;;;;;;;;;;;;;;20.97;49.69;102356.25;2088035;28;1516;-71
2021/04/13 04:46:20;;;;;;;;;;;;;;;20.97;49.72;102356.25;2086223;28;1767;-71
2021/04/13 04:47:20;;;;;;;;;;;;;;;20.98;49.68;102354.22;2092053;28;1539;-71
2021/04/13 04:48:21;;;;;;;;;;;;;;;20.98;49.56;102351.38;2088046;28;1970;-70
2021/04/13 04:49:22;;;;;;;;;;;;;;;20.97;49.57;102355.41;2089553;28;2129;-70
2021/04/13 04:50:23;;;;;;;;;;;;;;;20.98;49.65;102351.38;2090524;28;2105;-70
2021/04/13 04:51:23;;;;;;;;;;;;;;;20.98;49.57;102354.22;2090836;28;1648;-71
2021/04/13 04:52:24;;;;;;;;;;;;;;;20.97;49.73;102353.41;2090860;28;1981;-71
2021/04/13 04:53:25;;;;;;;;;;;;;;;20.97;49.63;102359.09;2090783;28;1903;-72
2021/04/13 04:54:26;;;;;;;;;;;;;;;20.98;49.63;102354.22;2089689;28;1765;-72
2021/04/13 04:55:26;;;;;;;;;;;;;;;20.98;49.66;102357.94;2091241;28;1587;-72
2021/04/13 04:56:27;;;;;;;;;;;;;;;20.97;49.57;102367.63;2090708;28;1868;-71
2021/04/13 04:57:28;;;;;;;;;;;;;;;20.99;49.62;102367.31;2091904;28;1445;-72
2021/04/13 04:58:29;;;;;;;;;;;;;;;20.98;49.66;102365.63;2085666;28;1970;-71
2021/04/13 04:59:29;;;;;;;;;;;;;;;20.98;49.67;102365.63;2088025;28;1942;-70
2021/04/13 05:00:30;;;;;;;;;;;;;;;20.98;49.59;102368.47;2090443;28;1961;-71
2021/04/13 05:01:31;;;;;;;;;;;;;;;20.98;49.73;102375.00;2091897;28;1774;-71
2021/04/13 05:02:31;;;;;;;;;;;;;;;21.04;49.81;102370.06;2092451;28;1849;-72
2021/04/13 05:03:32;;;;;;;;;;;;;;;20.99;48.15;102378.69;2087135;28;1870;-71
2021/04/13 05:04:33;;;;;;;;;;;;;;;20.79;46.59;102368.56;2096358;28;1830;-71
2021/04/13 05:05:34;;;;;;;;;;;;;;;20.61;45.15;102376.00;2091356;28;1673;-68
2021/04/13 05:06:35;;;;;;;;;;;;;;;20.51;44.53;102374.19;2092096;28;1908;-71
2021/04/13 05:07:36;;;;;;;;;;;;;;;20.43;43.63;102375.72;2096269;28;1539;-69
2021/04/13 05:08:36;;;;;;;;;;;;;;;20.37;43.20;102373.25;2091066;28;1946;-70
2021/04/13 05:09:37;;;;;;;;;;;;;;;20.32;42.44;102379.91;2088848;28;1931;-69
2021/04/13 05:10:38;;;;;;;;;;;;;;;20.25;41.61;102380.28;2092790;28;1569;-70
2021/04/13 05:11:38;;;;;;;;;;;;;;;20.27;43.15;102377.16;2091804;28;2143;-70
2021/04/13 05:12:40;;;;;;;;;;;;;;;20.36;43.93;102375.28;2097658;28;1958;-73
2021/04/13 05:13:41;;;;;;;;;;;;;;;20.43;44.37;102370.03;2091505;28;1910;-72
2021/04/13 05:14:42;;;;;;;;;;;;;;;20.50;44.79;102368.78;2092483;28;1567;-71
2021/04/13 05:15:43;;;;;;;;;;;;;;;20.53;44.92;102369.03;2093204;28;2059;-74
2021/04/13 05:16:43;;;;;;;;;;;;;;;20.56;45.31;102378.94;2081970;28;2855;-73
2021/04/13 05:17:45;;;;;;;;;;;;;;;20.57;45.40;102374.97;2084096;28;2000;-71
2021/04/13 05:18:46;;;;;;;;;;;;;;;20.60;45.58;102375.16;2085118;28;1980;-71
2021/04/13 05:19:47;;;;;;;;;;;;;;;20.61;45.68;102376.84;2085021;28;1983;-69
2021/04/13 05:20:47;;;;;;;;;;;;;;;20.62;45.77;102372.84;2087689;28;1984;-70
2021/04/13 05:21:48;;;;;;;;;;;;;;;20.62;45.81;102375.72;2087153;28;2060;-72